ADDS METAR Data INFO
IDs: Format: Raw Decoded Include TAF

Data at: 2111 UTC 19 Jul 2018

KLUL 192055Z AUTO 00000KT 10SM BKN037 31/23 A2990 RMK AO2 T03110231
KLUL 192035Z AUTO 10005KT 10SM BKN037 OVC043 32/24 A2991 RMK AO2 T03230239
KLUL 192015Z AUTO 10004KT 10SM BKN037 BKN043 32/23 A2991 RMK AO2 T03220233
KLUL 191955Z AUTO 00000KT 10SM SCT039 BKN050 33/23 A2992 RMK AO2 T03260234
KLUL 191935Z AUTO 35004KT 10SM SCT039 SCT048 33/23 A2993 RMK AO2 T03250229
KLUL 191915Z AUTO 00000KT 10SM SCT037 SCT046 32/22 A2993 RMK AO2 T03200224
KLUL 191855Z AUTO 36003KT 10SM BKN035 BKN044 31/23 A2993 RMK AO2 T03120230
KLUL 191835Z AUTO 31003KT 10SM BKN033 32/23 A2993 RMK AO2 T03150232
KLUL 191815Z AUTO 00000KT 10SM SCT033 31/23 A2994 RMK AO2 T03110227
KLUL 191755Z AUTO 00000KT 10SM SCT032 31/23 A2995 RMK AO2 T03120228
KLUL 191735Z AUTO 00000KT 10SM SCT024 31/23 A2995 RMK AO2 T03060229
KLUL 191715Z AUTO 05006KT 10SM SCT024 30/24 A2996 RMK AO2 T03030236
KLUL 191655Z AUTO 03003KT 10SM SCT022 30/24 A2996 RMK AO2 T03010237
KLUL 191635Z AUTO 00000KT 10SM SCT020 29/24 A2996 RMK AO2 T02930241
KLUL 191615Z AUTO 02005KT 10SM SCT013 29/24 A2996 RMK AO2 T02890242
KLUL 191555Z AUTO 00000KT 10SM SCT013 28/24 A2996 RMK AO2 T02800243
KLUL 191535Z AUTO 02004KT 10SM SCT009 SCT120 27/25 A2997 RMK AO2 T02740245
KLUL 191515Z AUTO 01003KT 10SM OVC009 27/25 A2997 RMK AO2 T02710245
KLUL 191455Z AUTO 01005KT 7SM OVC007 26/25 A2997 RMK AO2 T02560252
KLUL 191435Z AUTO 00000KT 7SM OVC005 25/25 A2997 RMK AO2 T02470247
KLUL 191415Z AUTO 00000KT 5SM OVC005 24/24 A2997 RMK AO2 T02430243
KLUL 191355Z AUTO 00000KT 5SM OVC003 24/24 A2997 RMK AO2 T02400240
KLUL 191335Z AUTO 00000KT 5SM OVC003 24/24 A2997 RMK AO2 T02360236
KLUL 191315Z AUTO 00000KT 5SM OVC003 23/23 A2997 RMK AO2 T02340234
KLUL 191255Z AUTO 00000KT 4SM OVC003 23/23 A2997 RMK AO2 T02310231
KLUL 191235Z AUTO 00000KT 2 1/2SM OVC003 23/23 A2997 RMK AO2 T02300230
KLUL 191215Z AUTO 00000KT 1 1/2SM OVC003 23/23 A2997 RMK AO2 T02300230
KLUL 191155Z AUTO 00000KT 5SM OVC003 23/23 A2997 RMK AO2 T02280228
KLUL 191135Z AUTO 00000KT 4SM OVC003 23/23 A2997 RMK AO2 T02270227
KLUL 191115Z AUTO 00000KT 1 1/2SM OVC003 23/23 A2996 RMK AO2 T02270227
KLUL 191055Z AUTO 00000KT 3/4SM OVC003 23/23 A2996 RMK AO2 T02270227
KLUL 191035Z AUTO 00000KT 3SM OVC003 23/23 A2996 RMK AO2 T02270227
KLUL 191015Z AUTO 22003KT 1SM OVC003 23/23 A2996 RMK AO2 T02270227
KLUL 190955Z AUTO 00000KT 2 1/2SM OVC003 23/23 A2996 RMK AO2 T02280228
KLUL 190935Z AUTO 00000KT 5SM OVC003 23/23 A2995 RMK AO2 T02280228
KLUL 190915Z AUTO 00000KT 5SM OVC003 23/23 A2994 RMK AO2 T02270227
KLUL 190835Z AUTO 17003KT 5SM OVC003 23/23 A2993 RMK AO2 T02280228
KLUL 190815Z AUTO 00000KT 7SM OVC003 23/23 A2993 RMK AO2 T02270227
KLUL 190755Z AUTO 00000KT 7SM OVC003 23/23 A2993 RMK AO2 T02270227
KLUL 190735Z AUTO 00000KT 7SM OVC003 23/23 A2993 RMK AO2 T02280228
KLUL 190715Z AUTO 00000KT 7SM OVC003 23/23 A2993 RMK AO2 T02280228
KLUL 190655Z AUTO 31003KT 10SM BKN003 23/23 A2993 RMK AO2 T02280228
KLUL 190635Z AUTO 29005KT 10SM OVC003 23/23 A2993 RMK AO2 T02300230
KLUL 190615Z AUTO 00000KT 10SM OVC003 23/23 A2993 RMK AO2 T02300230
KLUL 190555Z AUTO 00000KT 10SM BKN003 BKN009 23/23 A2993 RMK AO2 T02300230
KLUL 190535Z AUTO 27003KT 10SM BKN003 OVC007 23/23 A2993 RMK AO2 T02310231
KLUL 190515Z AUTO 27003KT 10SM BKN003 OVC007 23/23 A2994 RMK AO2 T02330233
KLUL 190455Z AUTO 25003KT 10SM OVC005 24/24 A2994 RMK AO2 P0001 T02350235
KLUL 190435Z AUTO 24003KT 7SM OVC003 24/24 A2993 RMK AO2 T02350235
KLUL 190415Z AUTO 00000KT 10SM BKN003 24/24 A2993 RMK AO2 T02350235
KLUL 190355Z AUTO 00000KT 10SM CLR 24/24 A2994 RMK AO2 T02360236
KLUL 190335Z AUTO 00000KT 10SM CLR 24/24 A2993 RMK AO2 T02370237
KLUL 190315Z AUTO 00000KT 10SM CLR 24/24 A2994 RMK AO2 T02370237
KLUL 190255Z AUTO 00000KT 10SM SCT095 SCT110 24/24 A2995 RMK AO2 P0006 T02370237
KLUL 190235Z AUTO 00000KT 10SM BKN110 24/24 A2996 RMK AO2 P0005 T02370237
KLUL 190215Z AUTO 00000KT 7SM OVC100 24/24 A2996 RMK AO2 P0003 T02360236
KLUL 190155Z AUTO 00000KT 7SM OVC100 24/24 A2997 RMK AO2 P0009 T02370237
KLUL 190135Z AUTO 00000KT 5SM SCT070 BKN100 24/24 A2997 RMK AO2 P0004 T02380238
KLUL 190115Z AUTO 35003KT 10SM SCT060 SCT085 SCT100 25/23 A2997 RMK AO2 T02450233
KLUL 190055Z AUTO 36005KT 10SM CLR 25/22 A2996 RMK AO2 T02520222
KLUL 190035Z AUTO 01007KT 10SM SCT014 SCT044 SCT060 26/24 A2996 RMK AO2 T02560240
KLUL 190015Z AUTO 30003KT 10SM SCT014 BKN042 OVC060 26/23 A2996 RMK AO2 T02560231
KLUL 182355Z AUTO 30004KT 10SM SCT040 BKN047 26/22 A2995 RMK AO2 T02590222
KLUL 182335Z AUTO 27007KT 10SM CLR 27/22 A2995 RMK AO2 T02650215
KLUL 182315Z AUTO 27004KT 10SM CLR 27/23 A2993 RMK AO2 T02700226
KLUL 182255Z AUTO 25008KT 10SM CLR 28/23 A2993 RMK AO2 T02840228
KLUL 182235Z AUTO 21003KT 10SM SCT080 28/23 A2993 RMK AO2 T02810228
KLUL 182215Z AUTO 18006KT 10SM SCT080 29/23 A2993 RMK AO2 T02870225
KLUL 182155Z AUTO 19005KT 10SM SCT041 29/23 A2993 RMK AO2 T02940230
KLUL 182135Z AUTO 21006KT 10SM SCT039 29/23 A2993 RMK AO2 T02930226
KLUL 182115Z AUTO 23007KT 10SM CLR 29/23 A2993 RMK AO2 T02930229
KLUL 182055Z AUTO 21003KT 10SM CLR 29/23 A2992 RMK AO2 T02850227
KLUL 182035Z AUTO 24005KT 10SM SCT050 SCT060 29/23 A2993 RMK AO2 T02900233
KLUL 182015Z AUTO 25008KT 10SM SCT046 30/23 A2993 RMK AO2 T02950234
KLUL 181955Z AUTO 23005KT 10SM SCT048 SCT060 30/23 A2994 RMK AO2 T03020230
KLUL 181935Z AUTO 22005KT 10SM SCT034 SCT042 SCT060 31/23 A2995 RMK AO2 T03080230
KLUL 181915Z AUTO 27006KT 10SM SCT030 SCT036 BKN047 30/22 A2995 RMK AO2 T02950222
KLUL 181855Z AUTO 27005KT 10SM SCT030 SCT047 SCT060 32/25 A2995 RMK AO2 T03200245
KLUL 181835Z AUTO 05003KT 10SM SCT028 SCT032 32/25 A2996 RMK AO2 T03220248
KLUL 181815Z AUTO 08004KT 10SM SCT028 32/25 A2997 RMK AO2 T03170245
KLUL 181755Z AUTO 00000KT 10SM CLR 31/24 A2998 RMK AO2 T03100242
KLUL 181735Z AUTO 00000KT 10SM CLR 30/24 A2998 RMK AO2 T03020237
KLUL 181715Z AUTO 31003KT 10SM CLR 30/25 A2999 RMK AO2 T03000245
KLUL 181655Z AUTO 28004KT 7SM SCT016 29/25 A3000 RMK AO2 T02920247
KLUL 181635Z AUTO 00000KT 10SM SCT016 29/24 A3000 RMK AO2 T02920244
KLUL 181615Z AUTO 00000KT 7SM SCT016 30/25 A3000 RMK AO2 T02970250
KLUL 181555Z AUTO 30004KT 10SM BKN016 29/25 A3000 RMK AO2 T02940249
KLUL 181535Z AUTO 31004KT 10SM BKN016 29/25 A3000 RMK AO2 T02870249
KLUL 181515Z AUTO 28004KT 10SM BKN016 28/25 A3001 RMK AO2 T02840248
KLUL 181455Z AUTO 00000KT 10SM SCT014 28/24 A3001 RMK AO2 T02800243
KLUL 181435Z AUTO 27003KT 10SM SCT014 28/25 A3002 RMK AO2 T02800245
KLUL 181415Z AUTO 25003KT 10SM CLR 28/24 A3002 RMK AO2 T02750244
KLUL 181355Z AUTO 00000KT 7SM CLR 28/24 A3002 RMK AO2 T02770240
KLUL 181335Z AUTO 26004KT 10SM CLR 28/24 A3002 RMK AO2 T02750243
KLUL 181315Z AUTO 00000KT 10SM CLR 27/24 A3002 RMK AO2 T02650241
KLUL 181255Z AUTO 00000KT 10SM CLR 26/25 A3002 RMK AO2 T02550248
KLUL 181235Z AUTO 00000KT 7SM CLR 25/25 A3001 RMK AO2 T02450245
KLUL 181215Z AUTO 00000KT 5SM CLR 24/24 A3001 RMK AO2 T02410241
KLUL 181155Z AUTO 00000KT 5SM CLR 24/24 A3001 RMK AO2 T02400240
KLUL 181135Z AUTO 00000KT 7SM SCT060 24/24 A3001 RMK AO2 T02410241
KLUL 181115Z AUTO 00000KT 7SM SCT040 SCT046 OVC060 24/24 A3002 RMK AO2 T02410241
KLUL 181055Z AUTO 00000KT 7SM SCT038 SCT050 OVC060 24/24 A3002 RMK AO2 T02410241
KLUL 181035Z AUTO 00000KT 7SM SCT038 OVC050 24/24 A3001 RMK AO2 T02420242
KLUL 181015Z AUTO 00000KT 7SM SCT036 OVC055 24/24 A3001 RMK AO2 T02400240
KLUL 180955Z AUTO 00000KT 7SM SCT036 OVC055 24/24 A3001 RMK AO2 T02400240
KLUL 180935Z AUTO 00000KT 7SM SCT032 BKN055 OVC065 24/24 A3000 RMK AO2 T02380238
KLUL 180915Z AUTO 00000KT 7SM SCT032 SCT055 BKN065 24/24 A3000 RMK AO2 T02400240